createdAt,value
2022-08-17T00:02:26.152Z,24.50
2022-08-17T00:04:54.755Z,24.39
2022-08-17T00:07:21.762Z,24.13
2022-08-17T00:09:48.662Z,23.55
2022-08-17T00:12:40.945Z,23.79
2022-08-17T00:15:05.225Z,23.82
2022-08-17T00:17:32.617Z,23.66
2022-08-17T00:20:00.781Z,24.33
2022-08-17T00:22:34.672Z,24.84
2022-08-17T00:25:09.803Z,24.96
2022-08-17T00:27:36.406Z,24.73
2022-08-17T00:30:05.389Z,25.25
2022-08-17T00:33:15.012Z,25.30
2022-08-17T00:35:25.382Z,25.49
2022-08-17T00:37:52.735Z,24.96
2022-08-17T00:40:20.419Z,24.90
2022-08-17T00:42:48.941Z,24.79
2022-08-17T00:45:17.863Z,24.56
2022-08-17T00:47:44.691Z,24.26
2022-08-17T00:50:15.316Z,23.64
2022-08-17T00:52:51.111Z,23.12
2022-08-17T00:55:20.026Z,22.73
2022-08-17T00:57:55.174Z,22.71
2022-08-17T01:00:27.777Z,22.97
2022-08-17T01:03:01.361Z,22.40
2022-08-17T01:05:32.854Z,22.51
2022-08-17T01:08:01.973Z,22.73
2022-08-17T01:10:57.555Z,22.57
2022-08-17T01:13:26.025Z,22.73
2022-08-17T01:15:57.655Z,22.81
2022-08-17T01:18:25.578Z,22.88
2022-08-17T01:20:55.430Z,23.21
2022-08-17T01:23:24.874Z,23.65
2022-08-17T01:25:57.755Z,23.36
2022-08-17T01:28:53.018Z,23.66
2022-08-17T01:31:15.163Z,23.52
2022-08-17T01:33:41.852Z,23.68
2022-08-17T01:36:08.631Z,23.80
2022-08-17T01:38:37.136Z,23.41
2022-08-17T01:41:09.165Z,23.55
2022-08-17T01:43:52.026Z,23.20
2022-08-17T01:46:27.290Z,23.76
2022-08-17T01:48:56.602Z,23.25
2022-08-17T01:51:25.528Z,23.11
2022-08-17T01:53:57.502Z,22.87
2022-08-17T01:56:28.489Z,22.31
2022-08-17T01:58:56.117Z,22.08
2022-08-17T02:01:27.032Z,22.04
2022-08-17T02:04:01.388Z,21.98
2022-08-17T02:06:52.568Z,21.84
2022-08-17T02:09:25.677Z,21.49
2022-08-17T02:11:57.514Z,22.03
2022-08-17T02:14:25.121Z,21.91
2022-08-17T02:16:52.454Z,21.92
2022-08-17T02:19:19.160Z,21.89
2022-08-17T02:21:48.508Z,22.07
2022-08-17T02:25:01.189Z,22.01
2022-08-17T02:27:18.826Z,21.81
2022-08-17T02:29:45.464Z,21.86
2022-08-17T02:32:28.532Z,21.95
2022-08-17T02:34:57.529Z,21.98
2022-08-17T02:37:25.428Z,21.60
2022-08-17T02:39:52.576Z,21.32
2022-08-17T02:42:27.393Z,21.40
2022-08-17T02:44:54.013Z,20.64
2022-08-17T02:47:20.661Z,19.79
2022-08-17T02:49:55.520Z,19.46
2022-08-17T02:52:42.753Z,19.29
2022-08-17T02:55:19.344Z,19.10
2022-08-17T02:57:46.976Z,19.29
2022-08-17T03:00:21.629Z,19.26
2022-08-17T03:02:49.149Z,19.16
2022-08-17T03:05:19.496Z,18.88
2022-08-17T03:07:46.238Z,18.75
2022-08-17T03:10:14.393Z,19.37
2022-08-17T03:12:42.449Z,19.39
2022-08-17T03:15:14.500Z,19.06
2022-08-17T03:17:41.333Z,19.00
2022-08-17T03:20:08.880Z,19.13
2022-08-17T03:22:38.510Z,19.14
2022-08-17T03:25:10.618Z,19.01
2022-08-17T03:27:38.456Z,19.05
2022-08-17T03:30:11.697Z,19.13
2022-08-17T03:32:41.886Z,18.95
2022-08-17T03:35:11.194Z,18.83
2022-08-17T03:37:39.564Z,18.87
2022-08-17T03:40:08.266Z,18.81
2022-08-17T03:42:37.447Z,18.73
2022-08-17T03:45:06.606Z,18.83
2022-08-17T03:47:33.296Z,18.87
2022-08-17T03:50:00.314Z,18.76
2022-08-17T03:52:26.918Z,18.80
2022-08-17T03:54:53.762Z,18.99
2022-08-17T03:57:20.566Z,18.88
2022-08-17T03:59:47.728Z,18.94
2022-08-17T04:02:22.923Z,19.00
2022-08-17T04:04:50.422Z,18.93
2022-08-17T04:07:19.244Z,19.08
2022-08-17T04:09:46.075Z,19.17
2022-08-17T04:12:15.892Z,19.35
2022-08-17T04:14:51.911Z,19.47
2022-08-17T04:17:22.560Z,19.52
2022-08-17T04:19:49.213Z,19.50
2022-08-17T04:22:32.978Z,19.22
2022-08-17T04:25:17.862Z,19.59
2022-08-17T04:27:44.477Z,19.42
2022-08-17T04:30:12.240Z,19.20
2022-08-17T04:33:00.689Z,19.18
2022-08-17T04:35:40.987Z,19.40
2022-08-17T04:38:10.763Z,19.61
2022-08-17T04:40:38.118Z,19.37
2022-08-17T04:43:09.475Z,19.29
2022-08-17T04:45:51.219Z,19.41
2022-08-17T04:48:35.499Z,19.27
2022-08-17T04:51:11.537Z,19.31
2022-08-17T04:53:40.942Z,19.60
2022-08-17T04:56:11.871Z,19.52
2022-08-17T04:58:46.769Z,19.52
2022-08-17T05:01:14.154Z,19.68
2022-08-17T05:03:41.535Z,19.86
2022-08-17T05:06:08.731Z,19.98
2022-08-17T05:08:35.719Z,19.82
2022-08-17T05:11:02.420Z,20.21
2022-08-17T05:13:29.305Z,20.14
2022-08-17T05:16:01.035Z,20.22
2022-08-17T05:18:29.129Z,20.00
2022-08-17T05:20:56.388Z,20.41
2022-08-17T05:23:25.703Z,21.08
2022-08-17T05:25:55.888Z,20.43
2022-08-17T05:28:27.590Z,21.30
2022-08-17T05:31:00.678Z,21.84
2022-08-17T05:33:32.376Z,21.97
2022-08-17T05:36:01.174Z,21.81
2022-08-17T05:38:29.871Z,21.94
2022-08-17T05:40:58.260Z,21.16
2022-08-17T05:43:28.359Z,19.88
2022-08-17T05:46:13.227Z,20.52
2022-08-17T05:48:47.348Z,20.94
2022-08-17T05:51:57.322Z,21.78
2022-08-17T05:55:14.376Z,21.34
2022-08-17T05:57:54.122Z,21.90
2022-08-17T06:00:42.975Z,21.65
2022-08-17T06:03:38.641Z,21.91
2022-08-17T06:06:25.225Z,22.16
2022-08-17T06:09:09.875Z,22.32
2022-08-17T06:11:53.549Z,22.38
2022-08-17T06:14:39.018Z,22.69
2022-08-17T06:17:14.676Z,22.50
2022-08-17T06:19:59.779Z,22.98
2022-08-17T06:22:36.461Z,23.29
2022-08-17T06:25:14.455Z,23.38
2022-08-17T06:27:53.907Z,23.74
2022-08-17T06:30:28.147Z,23.80
2022-08-17T06:33:03.342Z,24.00
2022-08-17T06:35:44.347Z,24.14
2022-08-17T06:38:37.178Z,24.18
2022-08-17T06:41:10.777Z,24.28
2022-08-17T06:44:03.683Z,24.53
2022-08-17T06:46:43.856Z,24.50
2022-08-17T06:49:40.799Z,23.91
2022-08-17T06:52:42.120Z,23.93
2022-08-17T06:55:20.578Z,24.57
2022-08-17T06:58:05.815Z,25.18
2022-08-17T07:00:46.662Z,25.35
2022-08-17T07:03:25.519Z,25.09
2022-08-17T07:05:54.622Z,24.70
2022-08-17T07:08:47.058Z,25.18
2022-08-17T07:11:25.606Z,24.20
2022-08-17T07:13:57.933Z,24.56
2022-08-17T07:16:28.826Z,24.66
2022-08-17T07:18:57.928Z,25.24
2022-08-17T07:22:17.095Z,25.82
2022-08-17T07:24:57.179Z,26.75
2022-08-17T07:27:39.038Z,27.86
2022-08-17T07:30:10.800Z,28.40
2022-08-17T07:32:42.683Z,28.03
2022-08-17T07:35:15.190Z,27.96
2022-08-17T07:38:06.101Z,27.69
2022-08-17T07:40:55.323Z,27.85
2022-08-17T07:43:25.950Z,28.46
2022-08-17T07:46:02.516Z,28.16
2022-08-17T07:48:29.219Z,27.84
2022-08-17T07:50:55.910Z,28.22
2022-08-17T07:53:25.844Z,27.73
2022-08-17T07:55:53.859Z,28.01
2022-08-17T07:58:23.368Z,28.80
2022-08-17T08:01:22.559Z,27.65
2022-08-17T08:03:52.631Z,26.85
2022-08-17T08:06:24.354Z,26.61
2022-08-17T08:08:55.154Z,26.62
2022-08-17T08:11:34.961Z,26.42
2022-08-17T08:14:28.672Z,26.35
2022-08-17T08:17:22.359Z,26.04
2022-08-17T08:19:49.250Z,26.36
2022-08-17T08:22:29.984Z,25.84
2022-08-17T08:24:59.438Z,25.40
2022-08-17T08:27:49.548Z,25.44
2022-08-17T08:30:20.301Z,25.81
2022-08-17T08:32:52.938Z,26.60
2022-08-17T08:35:31.327Z,27.12
2022-08-17T08:38:34.198Z,28.32
2022-08-17T08:41:33.225Z,29.25
2022-08-17T08:44:59.958Z,29.37
2022-08-17T08:47:35.616Z,29.26
2022-08-17T08:50:37.506Z,28.60
2022-08-17T08:53:10.120Z,28.83
2022-08-17T08:55:50.942Z,29.19
2022-08-17T08:58:32.023Z,29.10
2022-08-17T09:01:25.543Z,29.53
2022-08-17T09:04:25.710Z,29.27
2022-08-17T09:07:01.445Z,29.85
2022-08-17T09:09:58.699Z,29.69
2022-08-17T09:12:50.593Z,29.97
2022-08-17T09:15:27.763Z,29.36
2022-08-17T09:18:58.830Z,29.52
2022-08-17T09:21:01.235Z,29.66
2022-08-17T09:23:46.381Z,29.08
2022-08-17T09:26:17.872Z,29.20
2022-08-17T09:28:52.168Z,28.88
2022-08-17T09:31:33.401Z,28.56
2022-08-17T09:34:07.878Z,27.62
2022-08-17T09:36:44.603Z,27.95
2022-08-17T09:39:24.304Z,28.00
2022-08-17T09:42:01.483Z,28.00
2022-08-17T09:44:37.885Z,27.55
2022-08-17T09:47:10.454Z,27.31
2022-08-17T09:50:10.516Z,27.23
2022-08-17T09:52:37.606Z,26.68
2022-08-17T09:55:05.608Z,26.72
2022-08-17T09:57:45.636Z,27.26
2022-08-17T10:00:19.537Z,27.25
2022-08-17T10:03:16.900Z,27.60
2022-08-17T10:06:01.690Z,27.42
2022-08-17T10:08:49.339Z,27.75
2022-08-17T10:11:33.578Z,27.41
2022-08-17T10:14:38.094Z,27.36
2022-08-17T10:17:33.928Z,27.29
2022-08-17T10:20:03.207Z,27.10
2022-08-17T10:22:41.730Z,27.36
2022-08-17T10:25:23.459Z,27.51
2022-08-17T10:28:04.480Z,27.56
2022-08-17T10:30:43.659Z,27.48
2022-08-17T10:33:24.114Z,27.41
2022-08-17T10:36:23.250Z,27.60
2022-08-17T10:39:07.398Z,27.83
2022-08-17T10:41:43.820Z,27.71
2022-08-17T10:44:40.424Z,27.84
2022-08-17T10:47:15.081Z,27.72
2022-08-17T10:49:48.177Z,28.01
2022-08-17T10:52:20.960Z,28.35
2022-08-17T10:54:56.694Z,28.12
2022-08-17T10:57:31.222Z,27.98
2022-08-17T11:00:00.548Z,27.74
2022-08-17T11:02:59.532Z,28.17
2022-08-17T11:05:33.273Z,28.33
2022-08-17T11:08:24.866Z,28.18
2022-08-17T11:11:10.839Z,28.06
2022-08-17T11:14:06.427Z,28.30
2022-08-17T11:16:49.834Z,28.82
2022-08-17T11:20:10.881Z,28.29
2022-08-17T11:22:58.455Z,28.61
2022-08-17T11:25:53.184Z,28.75
2022-08-17T11:28:29.014Z,28.84
2022-08-17T11:31:08.313Z,28.71
2022-08-17T11:33:36.826Z,28.84
2022-08-17T11:36:16.677Z,28.83
2022-08-17T11:38:51.321Z,28.89
2022-08-17T11:41:47.173Z,29.10
2022-08-17T11:44:36.103Z,29.23
2022-08-17T11:47:20.700Z,29.57
2022-08-17T11:50:16.011Z,29.13
2022-08-17T11:52:49.925Z,28.91
2022-08-17T11:55:38.458Z,29.05
2022-08-17T11:58:17.949Z,28.61
2022-08-17T12:00:47.373Z,28.65
2022-08-17T12:03:22.997Z,29.34
2022-08-17T12:06:00.131Z,29.23
2022-08-17T12:08:28.259Z,29.48
2022-08-17T12:11:03.317Z,28.98
2022-08-17T12:13:39.527Z,29.41
2022-08-17T12:16:07.384Z,29.14
2022-08-17T12:18:37.038Z,29.09
2022-08-17T12:21:12.968Z,29.12
2022-08-17T12:23:48.941Z,29.55
2022-08-17T12:26:23.218Z,29.22
2022-08-17T12:28:59.753Z,29.47
2022-08-17T12:31:41.935Z,29.28
2022-08-17T12:34:17.006Z,29.78
2022-08-17T12:36:43.904Z,29.55
2022-08-17T12:39:13.985Z,29.64
2022-08-17T12:41:48.072Z,29.21
2022-08-17T12:44:30.500Z,29.53
2022-08-17T12:47:04.854Z,29.70
2022-08-17T12:49:37.965Z,29.63
2022-08-17T12:52:04.653Z,29.73
2022-08-17T12:54:51.871Z,29.90
2022-08-17T12:57:38.720Z,29.77
2022-08-17T13:00:17.297Z,30.16
2022-08-17T13:02:51.241Z,30.64
2022-08-17T13:05:38.361Z,30.56
2022-08-17T13:08:16.245Z,29.87
2022-08-17T13:10:43.789Z,30.08
2022-08-17T13:13:38.415Z,30.27
2022-08-17T13:16:19.044Z,30.02
2022-08-17T13:18:48.428Z,29.82
2022-08-17T13:21:20.829Z,29.95
2022-08-17T13:24:04.569Z,30.35
2022-08-17T13:26:40.429Z,30.61
2022-08-17T13:29:18.705Z,30.25
2022-08-17T13:31:52.682Z,30.41
2022-08-17T13:34:27.198Z,30.41
2022-08-17T13:37:24.652Z,30.37
2022-08-17T13:39:55.160Z,30.61
2022-08-17T13:42:53.369Z,30.56
2022-08-17T13:45:36.125Z,30.73
2022-08-17T13:48:25.394Z,30.87
2022-08-17T13:50:51.977Z,30.69
2022-08-17T13:53:36.873Z,30.83
2022-08-17T13:56:06.282Z,31.09
2022-08-17T13:59:06.227Z,31.12
2022-08-17T14:01:34.715Z,30.99
2022-08-17T14:04:17.679Z,31.00
2022-08-17T14:07:08.795Z,30.86
2022-08-17T14:09:39.845Z,31.02
2022-08-17T14:12:13.251Z,30.81
2022-08-17T14:14:40.449Z,31.09
2022-08-17T14:17:07.088Z,31.17
2022-08-17T14:19:35.121Z,30.33
2022-08-17T14:22:02.536Z,30.42
2022-08-17T14:24:33.048Z,28.95
2022-08-17T14:27:01.907Z,28.74
2022-08-17T14:29:31.079Z,29.17
2022-08-17T14:32:01.338Z,28.71
2022-08-17T14:34:27.942Z,29.09
2022-08-17T14:36:54.663Z,28.25
2022-08-17T14:39:21.333Z,27.69
2022-08-17T14:41:48.382Z,27.61
2022-08-17T14:44:15.849Z,27.48
2022-08-17T14:46:44.832Z,27.72
2022-08-17T14:49:14.264Z,27.46
2022-08-17T14:51:43.928Z,27.55
2022-08-17T14:54:33.168Z,27.77
2022-08-17T14:57:24.777Z,27.53
2022-08-17T14:59:55.144Z,27.43
2022-08-17T15:02:29.456Z,28.01
2022-08-17T15:05:05.861Z,27.84
2022-08-17T15:07:32.587Z,27.37
2022-08-17T15:10:00.708Z,27.58
2022-08-17T15:12:32.330Z,27.48
2022-08-17T15:15:01.599Z,27.30
2022-08-17T15:17:45.277Z,27.49
2022-08-17T15:20:25.504Z,27.52
2022-08-17T15:22:52.592Z,27.75
2022-08-17T15:25:19.410Z,27.75
2022-08-17T15:27:46.325Z,27.42
2022-08-17T15:30:13.283Z,27.28
2022-08-17T15:32:50.825Z,27.44
2022-08-17T15:35:28.147Z,27.00
2022-08-17T15:38:07.920Z,26.77
2022-08-17T15:40:40.011Z,26.80
2022-08-17T15:43:08.517Z,26.64
2022-08-17T15:45:35.136Z,26.53
2022-08-17T15:48:01.995Z,26.45
2022-08-17T15:50:28.685Z,26.14
2022-08-17T15:53:01.765Z,25.97
2022-08-17T15:55:30.886Z,25.94
2022-08-17T15:57:57.667Z,25.95
2022-08-17T16:00:24.452Z,25.88
2022-08-17T16:03:13.587Z,25.52
2022-08-17T16:05:38.464Z,25.37
2022-08-17T16:08:07.959Z,25.11
2022-08-17T16:10:35.665Z,25.17
2022-08-17T16:13:04.613Z,25.18
2022-08-17T16:15:31.714Z,24.82
2022-08-17T16:17:58.875Z,24.45
2022-08-17T16:23:29.662Z,22.88
2022-08-17T16:26:00.846Z,22.24
2022-08-17T16:28:35.904Z,21.75
2022-08-17T16:31:08.218Z,21.72
2022-08-17T16:33:37.890Z,21.79
2022-08-17T16:36:05.605Z,21.47
2022-08-17T16:38:32.569Z,21.58
2022-08-17T16:40:59.223Z,21.44
2022-08-17T16:43:26.016Z,21.04
2022-08-17T16:45:52.940Z,20.52
2022-08-17T16:48:19.753Z,19.55
2022-08-17T16:51:03.175Z,18.64
2022-08-17T16:53:31.723Z,18.12
2022-08-17T16:55:58.439Z,17.60
2022-08-17T16:58:25.071Z,17.48
2022-08-17T17:00:51.741Z,17.36
2022-08-17T17:03:23.679Z,17.36
2022-08-17T17:06:08.055Z,17.29
2022-08-17T17:08:47.948Z,17.61
2022-08-17T17:11:23.457Z,17.65
2022-08-17T17:13:57.498Z,17.87
2022-08-17T17:16:50.330Z,18.25
2022-08-17T17:19:44.212Z,18.43
2022-08-17T17:22:28.558Z,18.62
2022-08-17T17:25:14.053Z,19.08
2022-08-17T17:27:56.422Z,19.53
2022-08-17T17:30:29.038Z,19.38
2022-08-17T17:33:04.826Z,19.48
2022-08-17T17:35:50.185Z,19.34
2022-08-17T17:38:23.941Z,19.33
2022-08-17T17:41:02.989Z,19.65
2022-08-17T17:43:40.342Z,19.60
2022-08-17T17:46:27.241Z,19.54
2022-08-17T17:48:59.715Z,19.91
2022-08-17T17:52:09.643Z,20.55
2022-08-17T17:54:50.174Z,21.01
2022-08-17T17:57:33.485Z,20.77
2022-08-17T18:00:12.333Z,20.34
2022-08-17T18:03:19.425Z,20.43
2022-08-17T18:05:58.243Z,20.66
2022-08-17T18:08:52.233Z,20.37
2022-08-17T18:11:25.016Z,20.74
2022-08-17T18:14:03.864Z,20.90
2022-08-17T18:16:32.179Z,20.60
2022-08-17T18:19:00.128Z,20.62
2022-08-17T18:21:37.997Z,20.78
2022-08-17T18:24:08.938Z,20.46
2022-08-17T18:26:45.924Z,20.53
2022-08-17T18:29:25.861Z,20.82
2022-08-17T18:32:36.808Z,20.90
2022-08-17T18:35:26.574Z,20.51
2022-08-17T18:38:27.389Z,20.65
2022-08-17T18:41:18.452Z,20.79
2022-08-17T18:44:00.572Z,20.74
2022-08-17T18:46:30.203Z,20.80
2022-08-17T18:49:23.893Z,20.97
2022-08-17T18:52:11.012Z,20.50
2022-08-17T18:54:38.284Z,20.10
2022-08-17T18:57:07.325Z,19.55
2022-08-17T18:59:44.326Z,19.58
2022-08-17T19:02:22.092Z,19.71
2022-08-17T19:05:14.290Z,19.82
2022-08-17T19:07:44.966Z,20.00
2022-08-17T19:10:17.669Z,19.72
2022-08-17T19:12:52.817Z,19.88
2022-08-17T19:15:45.502Z,19.54
2022-08-17T19:18:38.566Z,19.36
2022-08-17T19:21:20.274Z,19.39
2022-08-17T19:24:00.505Z,20.01
2022-08-17T19:26:53.354Z,19.71
2022-08-17T19:30:08.117Z,19.67
2022-08-17T19:32:37.223Z,19.71
2022-08-17T19:35:10.489Z,19.72
2022-08-17T19:37:52.929Z,20.13
2022-08-17T19:40:51.043Z,20.17
2022-08-17T19:43:30.385Z,20.27
2022-08-17T19:46:23.794Z,20.71
2022-08-17T19:48:56.933Z,20.71
2022-08-17T19:51:39.901Z,20.51
2022-08-17T19:54:21.941Z,20.35
2022-08-17T19:57:06.713Z,20.51
2022-08-17T19:59:55.003Z,20.42
2022-08-17T20:02:37.233Z,20.52
2022-08-17T20:06:10.998Z,20.17
2022-08-17T20:08:39.846Z,19.81
2022-08-17T20:11:16.370Z,18.54
2022-08-17T20:13:49.833Z,18.05
2022-08-17T20:16:20.122Z,17.95
2022-08-17T20:19:11.338Z,17.91
2022-08-17T20:22:08.979Z,18.53
2022-08-17T20:24:48.218Z,18.61
2022-08-17T20:27:20.797Z,18.86
2022-08-17T20:30:13.156Z,19.13
2022-08-17T20:32:53.135Z,19.72
2022-08-17T20:35:22.766Z,19.75
2022-08-17T20:38:06.372Z,19.75
2022-08-17T20:40:38.302Z,19.32
2022-08-17T20:43:29.961Z,18.99
2022-08-17T20:46:36.694Z,18.44
2022-08-17T20:49:25.802Z,18.27
2022-08-17T20:52:08.219Z,17.97
2022-08-17T20:54:43.538Z,17.45
2022-08-17T20:57:32.937Z,17.03
2022-08-17T21:00:30.273Z,16.76
2022-08-17T21:03:20.543Z,16.90
2022-08-17T21:06:01.347Z,17.00
2022-08-17T21:08:51.138Z,17.79
2022-08-17T21:12:02.735Z,17.99
2022-08-17T21:15:03.229Z,19.06
2022-08-17T21:18:12.185Z,19.41
2022-08-17T21:21:03.404Z,19.62
2022-08-17T21:23:32.724Z,19.91
2022-08-17T21:26:05.264Z,19.49
2022-08-17T21:29:29.490Z,18.20
2022-08-17T21:32:03.279Z,17.33
2022-08-17T21:34:32.389Z,16.90
2022-08-17T21:37:20.669Z,16.88
2022-08-17T21:40:10.067Z,16.64
2022-08-17T21:42:51.873Z,16.66
2022-08-17T21:45:35.022Z,17.19
2022-08-17T21:48:19.459Z,17.58
2022-08-17T21:50:59.292Z,17.06
2022-08-17T21:53:36.315Z,16.90
2022-08-17T21:56:03.474Z,16.60
2022-08-17T21:58:33.168Z,16.54
2022-08-17T22:01:19.113Z,16.29
2022-08-17T22:03:54.171Z,16.52
2022-08-17T22:06:25.105Z,17.12
2022-08-17T22:09:01.338Z,17.83
2022-08-17T22:11:28.232Z,18.56
2022-08-17T22:14:00.601Z,18.96
2022-08-17T22:16:33.013Z,19.07
2022-08-17T22:18:59.790Z,18.71
2022-08-17T22:21:27.403Z,18.51
2022-08-17T22:24:15.523Z,18.24
2022-08-17T22:27:06.226Z,17.71
2022-08-17T22:29:47.953Z,17.44
2022-08-17T22:32:37.537Z,17.21
2022-08-17T22:35:31.554Z,17.09
2022-08-17T22:38:19.927Z,16.86
2022-08-17T22:40:47.780Z,16.39
2022-08-17T22:43:14.567Z,16.39
2022-08-17T22:45:53.019Z,16.43
2022-08-17T22:48:26.722Z,16.25
2022-08-17T22:51:12.900Z,16.07
2022-08-17T22:53:53.756Z,16.29
2022-08-17T22:56:24.911Z,16.14
2022-08-17T22:58:58.785Z,16.24
2022-08-17T23:01:32.728Z,16.00
2022-08-17T23:04:03.191Z,16.09
2022-08-17T23:06:31.748Z,16.14
2022-08-17T23:08:58.374Z,16.07
2022-08-17T23:11:36.844Z,16.25
2022-08-17T23:14:16.097Z,16.66
2022-08-17T23:16:43.007Z,16.50
2022-08-17T23:19:11.506Z,16.88
2022-08-17T23:21:38.580Z,16.75
2022-08-17T23:24:06.420Z,16.87
2022-08-17T23:26:35.722Z,17.02
2022-08-17T23:29:02.391Z,17.53
2022-08-17T23:31:30.178Z,17.99
2022-08-17T23:33:56.852Z,18.24
2022-08-17T23:36:23.459Z,17.51
2022-08-17T23:38:50.077Z,18.10
2022-08-17T23:41:20.193Z,17.87
2022-08-17T23:43:50.934Z,17.52
2022-08-17T23:46:18.407Z,17.58
2022-08-17T23:48:45.071Z,18.21
2022-08-17T23:51:17.318Z,18.67
2022-08-17T23:53:47.990Z,18.82
2022-08-17T23:56:15.246Z,18.66
2022-08-17T23:58:43.662Z,18.62
